• Join FlightAware (Why Join?)
  • Login
  • US Flag 
07:53AM EDT


 

Airport Tracker/Info


-or-


 

Live Flight TrackerFlight Track Log ✈ EJA922 ✈ 08-Jul-2013 ✈ KTOL - KPIR

Flight Track Log - Related Links

Times and Time Zones

All times are in EDT time to prevent confusion due to time zone crossing. See the EJA922 flight status page for this flight to view local times or setup timezone preferences in your user account.

Time Position Orientation Groundspeed Altitude Reporting Facility
EDT Latitude Longitude Course Direction KTS MPH feet Rate Location/Type
10:49AM 41.5833 -83.8731 276° West 198 228 2,600  Level Cleveland Center
10:50AM 41.5875 -83.9425 275° West 204 235 5,400 3,420 Climbing Cleveland Center
10:51AM 41.5958 -83.9878 284° West 251 289 7,800 3,060 Climbing Chicago Center
10:52AM 41.6044 -84.0961 276° West 286 329 10,100 1,560 Climbing Chicago Center
10:53AM 41.6139 -84.2372 275° West 370 426 11,100 1,020 Climbing Chicago Center
10:54AM 41.5800 -84.3792 252° West 395 455 12,200 1,680 Climbing Chicago Center
10:55AM 41.6001 -83.9673 276° West  Level FlightAware Approximate
10:55AM 41.5931 -84.5258 277° West 407 468 14,600  Level Chicago Center
10:56AM 41.6222 -84.6736 285° West 415 478 17,000 1,860 Climbing Chicago Center
10:57AM 41.6578 -84.8533 285° West 418 481 18,500 1,260 Climbing Chicago Center
10:58AM 41.6881 -85.0025 285° West 419 482 19,700 1,140 Climbing Chicago Center
10:59AM 41.7164 -85.1525 284° West 419 482 20,900 1,140 Climbing Chicago Center
11:00AM 41.7456 -85.2997 285° West 418 481 22,100 1,140 Climbing Chicago Center
11:01AM 41.7739 -85.4467 285° West 419 482 23,300 1,200 Climbing Chicago Center
11:02AM 41.8072 -85.6242 284° West 417 480 24,700 1,200 Climbing Chicago Center
11:03AM 41.8347 -85.7744 284° West 419 482 25,900 1,140 Climbing Chicago Center
11:04AM 41.8628 -85.9267 284° West 424 488 27,100 1,080 Climbing Chicago Center
11:05AM 41.8911 -86.0783 284° West 422 486 28,200 1,020 Climbing Chicago Center
11:06AM 41.9167 -86.2250 283° West 411 473 29,300 1,020 Climbing Chicago Center
11:07AM 41.9444 -86.3694 285° West 403 464 30,300 1,020 Climbing Chicago Center
11:08AM 41.9772 -86.5478 284° West 413 475 31,500 1,020 Climbing Chicago Center
11:09AM 42.0056 -86.7042 284° West 420 483 32,500 960 Climbing Chicago Center
11:10AM 42.0333 -86.8581 284° West 427 491 33,500 960 Climbing Chicago Center
11:11AM 42.0603 -87.0142 283° West 433 498 34,500 900 Climbing Chicago Center
11:12AM 42.0875 -87.1728 283° West 437 503 35,400 900 Climbing Chicago Center
11:13AM 42.1158 -87.3358 283° West 449 517 36,400 1,080 Climbing Chicago Center
11:14AM 42.1503 -87.5336 283° West 456 525 37,700 1,200 Climbing Chicago Center
11:15AM 42.1781 -87.6975 283° West 457 526 38,900 1,020 Climbing Chicago Center
11:17AM 42.2067 -87.8611 283° West 454 522 39,900 960 Climbing Chicago Center
11:18AM 42.2283 -88.0297 280° West 459 528 40,900 960 Climbing Chicago Center
11:19AM 42.2397 -88.2017 275° West 462 532 41,900 960 Climbing Chicago Center
11:20AM 42.2528 -88.3686 276° West 455 524 42,900 480 Climbing Chicago Center
11:21AM 42.2675 -88.5692 276° West 452 520 43,000  Climbing Chicago Center
11:22AM 42.2806 -88.7433 276° West 467 537 43,000  Level Chicago Center
11:23AM 42.2928 -88.9244 275° West 470 541 43,000  Level Chicago Center
11:24AM 42.3044 -89.1042 275° West 475 547 43,000  Level Chicago Center
11:25AM 42.3167 -89.2853 275° West 483 556 43,000  Level Chicago Center
11:26AM 42.3289 -89.4650 275° West 480 552 43,000  Level Chicago Center
11:27AM 42.3406 -89.6450 275° West 479 551 43,000  Level Chicago Center
11:28AM 42.3531 -89.8547 275° West 479 551 43,000  Level Chicago Center
11:29AM 42.3628 -90.0117 275° West 484 557 43,000  Level Chicago Center
11:30AM 42.3731 -90.1917 274° West 484 557 43,000  Level Chicago Center
11:31AM 42.3850 -90.4053 274° West 481 554 43,000  Level Chicago Center
11:32AM 42.3947 -90.5839 274° West 480 552 43,000  Level Chicago Center
11:33AM 42.4144 -90.7606 279° West 482 555 43,000  Level Chicago Center
11:34AM 42.4625 -90.9281 291° West 478 550 43,000  Level Chicago Center
11:35AM 42.5081 -91.0933 291° West 475 547 43,000  Level Chicago Center
11:36AM 42.5631 -91.2964 290° West 479 551 43,000  Level Chicago Center
11:37AM 42.6089 -91.4667 290° West 480 552 43,000  Level Chicago Center
11:38AM 42.6539 -91.6347 290° West 482 555 43,000  Level Chicago Center
11:39AM 42.7028 -91.8156 290° West 483 556 43,000  Level Chicago Center
11:40AM 42.7478 -91.9853 290° West 476 548 43,000  Level Chicago Center
11:41AM 42.7928 -92.1539 290° West 476 548 43,000  Level Chicago Center
11:42AM 42.8367 -92.3236 289° West 479 551 43,000  Level Chicago Center
11:43AM 42.8811 -92.4928 290° West 478 550 43,000  Level Chicago Center
11:44AM 42.9333 -92.6958 289° West 479 551 43,000  Level Chicago Center
11:45AM 42.9767 -92.8681 289° West 483 556 43,000  Level Chicago Center
11:46AM 43.0203 -93.0392 289° West 482 555 43,000  Level Chicago Center
11:47AM 43.0631 -93.2097 289° West 479 551 43,000  Level Chicago Center
11:48AM 43.1050 -93.3806 289° West 479 551 43,000  Level Chicago Center
11:49AM 43.1386 -93.5925 282° West 479 551 43,000  Level Chicago Center
11:51AM 43.1706 -93.7675 284° West 479 551 43,000  Level Chicago Center
11:52AM 43.2003 -93.9447 283° West 480 552 43,000  Level Chicago Center
11:53AM 43.2428 -94.1908 283° West 479 551 43,000  Level Minneapolis Center
11:54AM 43.2722 -94.3639 283° West 480 552 43,000  Level Minneapolis Center
11:55AM 43.3014 -94.5439 283° West 482 555 43,000  Level Minneapolis Center
11:56AM 43.3381 -94.7553 283° West 476 548 43,000  Level Minneapolis Center
11:57AM 43.3667 -94.9331 283° West 476 548 43,000  Level Minneapolis Center
11:58AM 43.3950 -95.1114 282° West 478 550 43,000  Level Minneapolis Center
11:59AM 43.4236 -95.2892 283° West 477 549 43,000  Level Minneapolis Center
12:00PM 43.4522 -95.4667 283° West 476 548 43,000  Level Minneapolis Center
12:01PM 43.4803 -95.6444 282° West 476 548 43,000  Level Minneapolis Center
12:02PM 43.5067 -95.8214 282° West 472 543 43,000  Level Minneapolis Center
12:03PM 43.5397 -96.0347 282° West 472 543 43,000  Level Minneapolis Center
12:04PM 43.5658 -96.2142 281° West 474 545 43,000  Level Minneapolis Center
12:05PM 43.5931 -96.3947 282° West 477 549 43,000  Level Minneapolis Center
12:06PM 43.6189 -96.5772 281° West 481 554 43,000  Level Minneapolis Center
12:07PM 43.6461 -96.7575 282° West 479 551 43,000  Level Minneapolis Center
12:08PM 43.6825 -96.9347 286° West 478 550 43,000  Level Minneapolis Center
12:09PM 43.7236 -97.1108 288° West 481 554 43,000  Level Minneapolis Center
12:10PM 43.7706 -97.3242 287° West 483 556 43,000 -120 Level Minneapolis Center
12:12PM 43.8097 -97.5003 287° West 481 554 42,800 -960 Descending Minneapolis Center
12:13PM 43.8481 -97.6758 287° West 477 549 41,100 -2,040 Descending Minneapolis Center
12:14PM 43.8844 -97.8461 287° West 465 535 38,600 -2,520 Descending Minneapolis Center
12:15PM 43.9214 -98.0158 287° West 460 529 36,000 -2,880 Descending Minneapolis Center
12:16PM 43.9594 -98.1914 287° West 471 542 32,700 -3,420 Descending Minneapolis Center
12:17PM 44.0061 -98.4103 287° West 492 566 29,000 -3,180 Descending Minneapolis Center
12:18PM 44.0450 -98.5928 287° West 494 568 26,200 -2,520 Descending Minneapolis Center
12:19PM 44.0778 -98.7569 286° West 481 554 23,900 -2,340 Descending Minneapolis Center
12:20PM 44.1131 -98.9308 286° West 469 540 21,400 -2,460 Descending Minneapolis Center
12:21PM 44.1475 -99.0972 286° West 456 525 18,900 -2,700 Descending Minneapolis Center
12:22PM 44.1864 -99.2894 286° West 434 499 15,900 -2,700 Descending Minneapolis Center
12:23PM 44.2172 -99.4475 285° West 425 489 13,400 -2,280 Descending Minneapolis Center
12:24PM 44.2461 -99.5950 285° West 408 470 11,200 -1,680 Descending Minneapolis Center
12:25PM 44.2747 -99.7381 286° West 393 452 10,000 -660 Descending Minneapolis Center
12:26PM 44.3006 -99.8733 285° West 379 436 9,900 -660 Descending Minneapolis Center
12:27PM 44.3222 -99.9692 288° West 308 354 8,700 -780 Descending Minneapolis Center
12:28PM 44.3392 -100.0636 284° West 298 343 8,300 -420 Descending Minneapolis Center
12:30PM 44.3667 -100.2833 270° West  Level FlightAware Approximate